Decoded Metar for KC62 ( in ) (IATA:) | Meteo·Mobile Aviation Weather
aviador You're here:

KC62 Decoded Metar

in
Report Time2020-02-18 22:15:00
UTC Time2020-02-18 22:35:03
Flight Rules mvfr MVFR
Wind300° at 07 kt
Visibility9999 m
Phenomena:N/A
Clouds:Overcast 020 Hf
Expected CloudBase > 1,600 ft AGL from Temp-Dew spread
Ceiling2,000 ft
Temp00°C
Dew Point-4°C (75% RH)
AAT-5.0°C
QNH1021 hPa
Raw Report
METAR KC62 182215Z AUTO 30007KT 270V330 10SM OVC020 00/M04 A3016 RMK
AO2 T00011044=

Extra information for KC62:More info

Social comments